Terminal Aerodrome Forecast
Issued by NWS

Home | Current Version | Previous Version | Text Only | Print | Product List | Glossary On
Versions: 1 2 3 4 5 6 7 8 9 10 11 12 13 14 15
000
FTUS46 KSEW 242327
TAFBLI
TAF
KBLI 242327Z 2500/2524 16012G22KT P6SM SCT030 BKN045
      TEMPO 2500/2504 -SHRA BKN030 OVC045
     FM250400 16012KT P6SM VCSH SCT030 BKN050
     FM251300 15010KT P6SM BKN030 BKN045
     FM251800 17007KT P6SM SCT040 BKN050=

USA.gov is the U.S. government's official web portal to all federal, state and local government web resources and services.